sensor_id;sensor_type;location;lat;lon;timestamp;pressure;altitude;pressure_sealevel;temperature;humidity
44351;BME280;62766;62.622;17.912;2023-01-26T00:00:36;100689.05;;;4.10;61.74
44351;BME280;62766;62.622;17.912;2023-01-26T00:03:04;100691.66;;;3.98;61.92
44351;BME280;62766;62.622;17.912;2023-01-26T00:05:35;100700.11;;;3.95;62.05
44351;BME280;62766;62.622;17.912;2023-01-26T00:08:05;100700.76;;;3.95;62.29
44351;BME280;62766;62.622;17.912;2023-01-26T00:10:35;100705.55;;;4.08;62.29
44351;BME280;62766;62.622;17.912;2023-01-26T00:13:06;100711.77;;;3.99;62.42
44351;BME280;62766;62.622;17.912;2023-01-26T00:15:35;100713.27;;;4.13;62.41
44351;BME280;62766;62.622;17.912;2023-01-26T00:18:03;100720.10;;;3.99;62.50
44351;BME280;62766;62.622;17.912;2023-01-26T00:20:31;100725.22;;;3.91;62.51
44351;BME280;62766;62.622;17.912;2023-01-26T00:23:00;100731.23;;;3.94;62.32
44351;BME280;62766;62.622;17.912;2023-01-26T00:25:28;100737.61;;;3.97;62.30
44351;BME280;62766;62.622;17.912;2023-01-26T00:27:56;100734.95;;;3.91;62.30
44351;BME280;62766;62.622;17.912;2023-01-26T00:30:25;100743.29;;;3.92;62.41
44351;BME280;62766;62.622;17.912;2023-01-26T00:32:53;100749.33;;;3.95;62.24
44351;BME280;62766;62.622;17.912;2023-01-26T00:35:22;100747.87;;;3.95;62.30
44351;BME280;62766;62.622;17.912;2023-01-26T00:37:50;100748.62;;;4.01;62.04
44351;BME280;62766;62.622;17.912;2023-01-26T00:40:19;100750.38;;;3.99;61.87
44351;BME280;62766;62.622;17.912;2023-01-26T00:42:48;100750.25;;;4.11;61.72
44351;BME280;62766;62.622;17.912;2023-01-26T00:45:16;100751.94;;;4.11;61.62
44351;BME280;62766;62.622;17.912;2023-01-26T00:47:45;100750.23;;;3.91;61.70
44351;BME280;62766;62.622;17.912;2023-01-26T00:50:14;100758.10;;;3.86;62.10
44351;BME280;62766;62.622;17.912;2023-01-26T00:52:43;100763.81;;;3.66;62.51
44351;BME280;62766;62.622;17.912;2023-01-26T00:55:13;100769.83;;;3.54;62.83
44351;BME280;62766;62.622;17.912;2023-01-26T00:57:42;100775.31;;;3.48;63.24
44351;BME280;62766;62.622;17.912;2023-01-26T01:00:11;100781.88;;;3.39;63.53
44351;BME280;62766;62.622;17.912;2023-01-26T01:02:38;100793.18;;;3.51;63.46
44351;BME280;62766;62.622;17.912;2023-01-26T01:05:08;100796.03;;;3.49;63.37
44351;BME280;62766;62.622;17.912;2023-01-26T01:07:37;100799.01;;;3.49;63.27
44351;BME280;62766;62.622;17.912;2023-01-26T01:10:06;100805.20;;;3.54;63.11
44351;BME280;62766;62.622;17.912;2023-01-26T01:12:35;100799.81;;;3.52;63.14
44351;BME280;62766;62.622;17.912;2023-01-26T01:15:05;100802.40;;;3.52;63.00
44351;BME280;62766;62.622;17.912;2023-01-26T01:17:34;100803.96;;;3.44;63.15
44351;BME280;62766;62.622;17.912;2023-01-26T01:20:03;100811.02;;;3.49;63.15
44351;BME280;62766;62.622;17.912;2023-01-26T01:22:33;100816.14;;;3.55;62.94
44351;BME280;62766;62.622;17.912;2023-01-26T01:25:03;100822.55;;;3.47;62.91
44351;BME280;62766;62.622;17.912;2023-01-26T01:27:32;100827.27;;;3.53;62.84
44351;BME280;62766;62.622;17.912;2023-01-26T01:30:01;100830.35;;;3.43;62.70
44351;BME280;62766;62.622;17.912;2023-01-26T01:32:29;100834.10;;;3.48;62.71
44351;BME280;62766;62.622;17.912;2023-01-26T01:34:58;100840.60;;;3.48;62.66
44351;BME280;62766;62.622;17.912;2023-01-26T01:37:28;100843.18;;;3.55;62.72
44351;BME280;62766;62.622;17.912;2023-01-26T01:39:56;100854.01;;;3.52;62.63
44351;BME280;62766;62.622;17.912;2023-01-26T01:42:25;100856.73;;;3.43;62.70
44351;BME280;62766;62.622;17.912;2023-01-26T01:45:59;100866.20;;;3.46;62.90
44351;BME280;62766;62.622;17.912;2023-01-26T01:48:34;100875.08;;;3.27;62.96
44351;BME280;62766;62.622;17.912;2023-01-26T01:51:10;100876.87;;;3.12;63.24
44351;BME280;62766;62.622;17.912;2023-01-26T01:53:43;100879.92;;;3.20;63.31
44351;BME280;62766;62.622;17.912;2023-01-26T01:56:19;100885.00;;;3.28;63.14
44351;BME280;62766;62.622;17.912;2023-01-26T01:58:53;100890.32;;;3.30;62.71
44351;BME280;62766;62.622;17.912;2023-01-26T02:01:23;100895.40;;;3.26;62.45
44351;BME280;62766;62.622;17.912;2023-01-26T02:03:53;100901.25;;;3.29;62.13
44351;BME280;62766;62.622;17.912;2023-01-26T02:06:28;100910.49;;;3.38;61.75
44351;BME280;62766;62.622;17.912;2023-01-26T02:08:59;100910.49;;;3.48;61.46
44351;BME280;62766;62.622;17.912;2023-01-26T02:11:31;100916.46;;;3.38;61.22
44351;BME280;62766;62.622;17.912;2023-01-26T02:14:04;100918.35;;;3.34;61.08
44351;BME280;62766;62.622;17.912;2023-01-26T02:16:34;100918.70;;;3.37;61.29
44351;BME280;62766;62.622;17.912;2023-01-26T02:19:04;100922.68;;;3.40;61.11
44351;BME280;62766;62.622;17.912;2023-01-26T02:21:35;100926.33;;;3.30;61.04
44351;BME280;62766;62.622;17.912;2023-01-26T02:24:09;100934.31;;;3.40;61.08
44351;BME280;62766;62.622;17.912;2023-01-26T02:26:39;100938.69;;;3.38;61.25
44351;BME280;62766;62.622;17.912;2023-01-26T02:29:09;100942.86;;;3.40;61.28
44351;BME280;62766;62.622;17.912;2023-01-26T02:31:38;100941.86;;;3.37;61.19
44351;BME280;62766;62.622;17.912;2023-01-26T02:34:08;100944.29;;;3.44;61.26
44351;BME280;62766;62.622;17.912;2023-01-26T02:36:36;100944.16;;;3.39;61.27
44351;BME280;62766;62.622;17.912;2023-01-26T02:39:20;100944.74;;;3.50;61.41
44351;BME280;62766;62.622;17.912;2023-01-26T02:41:51;100949.58;;;3.54;61.38
44351;BME280;62766;62.622;17.912;2023-01-26T02:44:21;100953.72;;;3.59;61.38
44351;BME280;62766;62.622;17.912;2023-01-26T02:46:52;100950.69;;;3.54;61.45
44351;BME280;62766;62.622;17.912;2023-01-26T02:49:21;100954.41;;;3.25;61.52
44351;BME280;62766;62.622;17.912;2023-01-26T02:51:51;100959.78;;;3.52;61.46
44351;BME280;62766;62.622;17.912;2023-01-26T02:54:20;100968.37;;;3.43;61.51
44351;BME280;62766;62.622;17.912;2023-01-26T02:56:49;100975.24;;;3.45;61.60
44351;BME280;62766;62.622;17.912;2023-01-26T02:59:17;100984.07;;;3.35;61.72
44351;BME280;62766;62.622;17.912;2023-01-26T03:01:47;100982.68;;;3.47;61.51
44351;BME280;62766;62.622;17.912;2023-01-26T03:04:16;100988.72;;;3.41;61.49
44351;BME280;62766;62.622;17.912;2023-01-26T03:06:44;100998.84;;;3.37;61.44
44351;BME280;62766;62.622;17.912;2023-01-26T03:09:13;101004.92;;;3.37;61.45
44351;BME280;62766;62.622;17.912;2023-01-26T03:11:41;101017.38;;;3.35;61.39
44351;BME280;62766;62.622;17.912;2023-01-26T03:14:10;101022.65;;;3.32;61.33
44351;BME280;62766;62.622;17.912;2023-01-26T03:16:40;101023.94;;;3.28;61.34
44351;BME280;62766;62.622;17.912;2023-01-26T03:19:11;101028.91;;;3.20;61.40
44351;BME280;62766;62.622;17.912;2023-01-26T03:21:40;101034.66;;;3.26;61.36
44351;BME280;62766;62.622;17.912;2023-01-26T03:24:10;101032.70;;;3.37;61.48
44351;BME280;62766;62.622;17.912;2023-01-26T03:26:40;101035.84;;;3.23;61.59
44351;BME280;62766;62.622;17.912;2023-01-26T03:29:08;101041.02;;;3.17;61.63
44351;BME280;62766;62.622;17.912;2023-01-26T03:31:37;101044.70;;;3.24;61.66
44351;BME280;62766;62.622;17.912;2023-01-26T03:34:05;101052.14;;;3.31;61.51
44351;BME280;62766;62.622;17.912;2023-01-26T03:36:33;101053.90;;;3.09;61.57
44351;BME280;62766;62.622;17.912;2023-01-26T03:39:02;101060.90;;;3.06;61.59
44351;BME280;62766;62.622;17.912;2023-01-26T03:41:30;101064.20;;;3.12;61.76
44351;BME280;62766;62.622;17.912;2023-01-26T03:43:58;101073.24;;;3.07;61.75
44351;BME280;62766;62.622;17.912;2023-01-26T03:46:27;101084.85;;;3.11;61.82
44351;BME280;62766;62.622;17.912;2023-01-26T03:48:55;101087.46;;;3.12;61.86
44351;BME280;62766;62.622;17.912;2023-01-26T03:51:24;101097.87;;;3.04;61.93
44351;BME280;62766;62.622;17.912;2023-01-26T03:53:52;101098.96;;;3.13;61.67
44351;BME280;62766;62.622;17.912;2023-01-26T03:56:21;101096.12;;;3.03;61.79
44351;BME280;62766;62.622;17.912;2023-01-26T03:58:52;101104.27;;;3.00;61.87
44351;BME280;62766;62.622;17.912;2023-01-26T04:01:23;101101.07;;;3.03;61.85
44351;BME280;62766;62.622;17.912;2023-01-26T04:03:54;101099.18;;;2.88;61.63
44351;BME280;62766;62.622;17.912;2023-01-26T04:06:22;101102.30;;;2.90;61.65
44351;BME280;62766;62.622;17.912;2023-01-26T04:08:51;101105.31;;;2.96;61.27
44351;BME280;62766;62.622;17.912;2023-01-26T04:11:20;101106.31;;;2.84;61.06
44351;BME280;62766;62.622;17.912;2023-01-26T04:13:49;101121.09;;;2.92;61.17
44351;BME280;62766;62.622;17.912;2023-01-26T04:16:18;101122.95;;;2.82;61.13
44351;BME280;62766;62.622;17.912;2023-01-26T04:18:46;101120.16;;;2.90;60.94
44351;BME280;62766;62.622;17.912;2023-01-26T04:21:14;101113.50;;;2.81;60.64
44351;BME280;62766;62.622;17.912;2023-01-26T04:23:43;101111.40;;;2.86;60.47
44351;BME280;62766;62.622;17.912;2023-01-26T04:26:11;101116.55;;;2.83;60.55
44351;BME280;62766;62.622;17.912;2023-01-26T04:28:40;101119.78;;;2.75;60.37
44351;BME280;62766;62.622;17.912;2023-01-26T04:31:08;101125.18;;;2.59;60.35
44351;BME280;62766;62.622;17.912;2023-01-26T04:33:36;101127.75;;;2.66;60.48
44351;BME280;62766;62.622;17.912;2023-01-26T04:36:06;101128.65;;;2.56;60.20
44351;BME280;62766;62.622;17.912;2023-01-26T04:38:35;101125.01;;;2.63;60.39
44351;BME280;62766;62.622;17.912;2023-01-26T04:41:03;101130.46;;;2.52;60.31
44351;BME280;62766;62.622;17.912;2023-01-26T04:43:32;101133.95;;;2.57;59.87
44351;BME280;62766;62.622;17.912;2023-01-26T04:46:02;101142.19;;;2.50;59.82
44351;BME280;62766;62.622;17.912;2023-01-26T04:48:31;101152.08;;;2.53;59.78
44351;BME280;62766;62.622;17.912;2023-01-26T04:51:01;101160.70;;;2.54;59.66
44351;BME280;62766;62.622;17.912;2023-01-26T04:53:30;101168.43;;;2.36;59.39
44351;BME280;62766;62.622;17.912;2023-01-26T04:55:59;101172.61;;;2.55;59.30
44351;BME280;62766;62.622;17.912;2023-01-26T04:58:27;101171.62;;;2.47;58.88
44351;BME280;62766;62.622;17.912;2023-01-26T05:03:38;101175.61;;;2.23;58.60
44351;BME280;62766;62.622;17.912;2023-01-26T05:06:07;101179.74;;;2.29;57.53
44351;BME280;62766;62.622;17.912;2023-01-26T05:08:36;101184.62;;;2.16;57.45
44351;BME280;62766;62.622;17.912;2023-01-26T05:11:05;101186.43;;;2.32;57.40
44351;BME280;62766;62.622;17.912;2023-01-26T05:13:34;101196.24;;;2.22;57.17
44351;BME280;62766;62.622;17.912;2023-01-26T05:16:03;101196.80;;;2.30;57.24
44351;BME280;62766;62.622;17.912;2023-01-26T05:18:30;101191.61;;;2.27;57.24
44351;BME280;62766;62.622;17.912;2023-01-26T05:20:59;101190.68;;;2.26;56.78
44351;BME280;62766;62.622;17.912;2023-01-26T05:23:27;101204.87;;;2.23;56.90
44351;BME280;62766;62.622;17.912;2023-01-26T05:25:56;101201.15;;;2.15;56.53
44351;BME280;62766;62.622;17.912;2023-01-26T05:28:24;101213.25;;;2.14;56.56
44351;BME280;62766;62.622;17.912;2023-01-26T05:30:53;101225.53;;;2.02;56.67
44351;BME280;62766;62.622;17.912;2023-01-26T05:33:21;101229.21;;;2.04;56.54
44351;BME280;62766;62.622;17.912;2023-01-26T05:35:50;101229.65;;;2.02;56.08
44351;BME280;62766;62.622;17.912;2023-01-26T05:38:20;101238.61;;;2.03;56.38
44351;BME280;62766;62.622;17.912;2023-01-26T05:40:48;101242.72;;;1.91;56.32
44351;BME280;62766;62.622;17.912;2023-01-26T05:43:16;101254.82;;;1.87;56.13
44351;BME280;62766;62.622;17.912;2023-01-26T05:45:45;101246.96;;;1.91;55.58
44351;BME280;62766;62.622;17.912;2023-01-26T05:48:13;101257.99;;;1.87;55.48
44351;BME280;62766;62.622;17.912;2023-01-26T05:50:42;101254.77;;;1.87;55.53
44351;BME280;62766;62.622;17.912;2023-01-26T05:53:10;101254.49;;;1.92;55.15
44351;BME280;62766;62.622;17.912;2023-01-26T05:55:38;101259.98;;;1.76;55.33
44351;BME280;62766;62.622;17.912;2023-01-26T05:58:07;101270.16;;;1.78;55.28
44351;BME280;62766;62.622;17.912;2023-01-26T06:00:35;101274.99;;;1.71;55.47
44351;BME280;62766;62.622;17.912;2023-01-26T06:03:04;101287.20;;;1.73;55.30
44351;BME280;62766;62.622;17.912;2023-01-26T06:05:32;101296.74;;;1.65;55.13
44351;BME280;62766;62.622;17.912;2023-01-26T06:08:01;101296.26;;;1.76;55.07
44351;BME280;62766;62.622;17.912;2023-01-26T06:10:29;101295.67;;;1.72;55.01
44351;BME280;62766;62.622;17.912;2023-01-26T06:12:59;101311.36;;;1.78;54.66
44351;BME280;62766;62.622;17.912;2023-01-26T06:15:27;101317.28;;;1.79;54.27
44351;BME280;62766;62.622;17.912;2023-01-26T06:17:56;101321.17;;;1.77;54.30
44351;BME280;62766;62.622;17.912;2023-01-26T06:20:24;101331.37;;;1.62;54.13
44351;BME280;62766;62.622;17.912;2023-01-26T06:22:53;101340.81;;;1.48;54.35
44351;BME280;62766;62.622;17.912;2023-01-26T06:25:21;101346.42;;;1.55;54.00
44351;BME280;62766;62.622;17.912;2023-01-26T06:27:49;101349.24;;;1.71;54.23
44351;BME280;62766;62.622;17.912;2023-01-26T06:30:18;101346.32;;;1.74;53.53
44351;BME280;62766;62.622;17.912;2023-01-26T06:32:48;101351.99;;;1.61;53.42
44351;BME280;62766;62.622;17.912;2023-01-26T06:35:17;101355.92;;;1.59;53.44
44351;BME280;62766;62.622;17.912;2023-01-26T06:37:47;101368.56;;;1.45;53.63
44351;BME280;62766;62.622;17.912;2023-01-26T06:40:17;101370.14;;;1.42;53.42
44351;BME280;62766;62.622;17.912;2023-01-26T06:42:46;101376.98;;;1.36;53.40
44351;BME280;62766;62.622;17.912;2023-01-26T06:45:16;101383.19;;;1.24;53.46
44351;BME280;62766;62.622;17.912;2023-01-26T06:47:45;101385.80;;;1.19;53.39
44351;BME280;62766;62.622;17.912;2023-01-26T06:50:14;101381.36;;;1.22;53.46
44351;BME280;62766;62.622;17.912;2023-01-26T06:52:45;101386.08;;;1.27;53.23
44351;BME280;62766;62.622;17.912;2023-01-26T06:55:19;101388.39;;;1.26;53.51
44351;BME280;62766;62.622;17.912;2023-01-26T06:57:49;101396.24;;;1.18;53.41
44351;BME280;62766;62.622;17.912;2023-01-26T07:00:18;101404.05;;;1.07;53.55
44351;BME280;62766;62.622;17.912;2023-01-26T07:02:48;101408.77;;;1.11;53.53
44351;BME280;62766;62.622;17.912;2023-01-26T07:05:18;101408.18;;;1.15;53.49
44351;BME280;62766;62.622;17.912;2023-01-26T07:07:47;101419.00;;;1.10;53.29
44351;BME280;62766;62.622;17.912;2023-01-26T07:10:16;101415.56;;;1.11;53.09
44351;BME280;62766;62.622;17.912;2023-01-26T07:12:45;101419.43;;;1.01;53.33
44351;BME280;62766;62.622;17.912;2023-01-26T07:15:13;101416.55;;;0.91;53.23
44351;BME280;62766;62.622;17.912;2023-01-26T07:17:41;101422.69;;;0.89;53.23
44351;BME280;62766;62.622;17.912;2023-01-26T07:20:10;101429.85;;;0.93;53.12
44351;BME280;62766;62.622;17.912;2023-01-26T07:22:38;101437.15;;;0.92;53.11
44351;BME280;62766;62.622;17.912;2023-01-26T07:25:07;101445.56;;;0.92;53.13
44351;BME280;62766;62.622;17.912;2023-01-26T07:27:40;101451.92;;;0.84;53.14
44351;BME280;62766;62.622;17.912;2023-01-26T07:30:11;101456.35;;;0.86;53.25
44351;BME280;62766;62.622;17.912;2023-01-26T07:32:39;101460.05;;;0.88;53.21
44351;BME280;62766;62.622;17.912;2023-01-26T07:35:08;101462.93;;;0.90;53.21
44351;BME280;62766;62.622;17.912;2023-01-26T07:37:36;101464.29;;;0.93;53.21
44351;BME280;62766;62.622;17.912;2023-01-26T07:40:06;101473.67;;;0.84;53.23
44351;BME280;62766;62.622;17.912;2023-01-26T07:42:34;101481.10;;;0.85;53.11
44351;BME280;62766;62.622;17.912;2023-01-26T07:45:04;101488.61;;;0.92;53.42
44351;BME280;62766;62.622;17.912;2023-01-26T07:47:33;101489.46;;;0.83;53.16
44351;BME280;62766;62.622;17.912;2023-01-26T07:50:03;101492.11;;;0.99;52.96
44351;BME280;62766;62.622;17.912;2023-01-26T07:52:31;101495.51;;;0.94;52.79
44351;BME280;62766;62.622;17.912;2023-01-26T07:54:59;101494.94;;;0.98;52.84
44351;BME280;62766;62.622;17.912;2023-01-26T07:57:27;101494.19;;;0.85;52.56
44351;BME280;62766;62.622;17.912;2023-01-26T07:59:56;101496.17;;;0.89;52.43
44351;BME280;62766;62.622;17.912;2023-01-26T08:02:24;101501.18;;;0.83;52.71
44351;BME280;62766;62.622;17.912;2023-01-26T08:04:53;101506.73;;;0.74;52.62
44351;BME280;62766;62.622;17.912;2023-01-26T08:07:21;101511.96;;;0.84;52.74
44351;BME280;62766;62.622;17.912;2023-01-26T08:09:50;101514.43;;;0.87;52.74
44351;BME280;62766;62.622;17.912;2023-01-26T08:12:18;101520.43;;;0.72;52.78
44351;BME280;62766;62.622;17.912;2023-01-26T08:14:47;101527.93;;;0.92;52.61
44351;BME280;62766;62.622;17.912;2023-01-26T08:17:17;101532.49;;;0.80;52.72
44351;BME280;62766;62.622;17.912;2023-01-26T08:19:46;101529.79;;;0.81;52.75
44351;BME280;62766;62.622;17.912;2023-01-26T08:22:15;101529.10;;;0.82;52.51
44351;BME280;62766;62.622;17.912;2023-01-26T08:24:44;101535.48;;;0.72;52.51
44351;BME280;62766;62.622;17.912;2023-01-26T08:27:12;101537.61;;;0.56;53.01
44351;BME280;62766;62.622;17.912;2023-01-26T08:29:41;101540.76;;;0.67;52.81
44351;BME280;62766;62.622;17.912;2023-01-26T08:32:09;101535.71;;;0.70;52.85
44351;BME280;62766;62.622;17.912;2023-01-26T08:34:38;101539.58;;;0.73;52.39
44351;BME280;62766;62.622;17.912;2023-01-26T08:37:06;101540.22;;;0.75;52.94
44351;BME280;62766;62.622;17.912;2023-01-26T08:39:35;101548.76;;;0.79;52.81
44351;BME280;62766;62.622;17.912;2023-01-26T08:42:03;101550.15;;;1.04;52.48
44351;BME280;62766;62.622;17.912;2023-01-26T08:44:32;101552.88;;;0.81;52.63
44351;BME280;62766;62.622;17.912;2023-01-26T08:47:00;101552.57;;;0.84;52.64
44351;BME280;62766;62.622;17.912;2023-01-26T08:49:28;101553.08;;;0.87;52.25
44351;BME280;62766;62.622;17.912;2023-01-26T08:51:57;101558.89;;;0.86;52.32
44351;BME280;62766;62.622;17.912;2023-01-26T08:54:26;101567.40;;;0.78;52.38
44351;BME280;62766;62.622;17.912;2023-01-26T08:56:54;101576.09;;;0.79;52.36
44351;BME280;62766;62.622;17.912;2023-01-26T08:59:23;101581.14;;;0.96;52.30
44351;BME280;62766;62.622;17.912;2023-01-26T09:01:51;101587.99;;;1.08;52.15
44351;BME280;62766;62.622;17.912;2023-01-26T09:04:20;101584.80;;;1.00;51.77
44351;BME280;62766;62.622;17.912;2023-01-26T09:06:49;101591.46;;;1.12;51.72
44351;BME280;62766;62.622;17.912;2023-01-26T09:09:17;101593.67;;;1.30;51.61
44351;BME280;62766;62.622;17.912;2023-01-26T09:11:45;101592.46;;;1.31;51.61
44351;BME280;62766;62.622;17.912;2023-01-26T09:14:13;101589.42;;;1.17;51.51
44351;BME280;62766;62.622;17.912;2023-01-26T09:16:42;101590.25;;;1.39;50.81
44351;BME280;62766;62.622;17.912;2023-01-26T09:19:10;101596.05;;;1.21;51.01
44351;BME280;62766;62.622;17.912;2023-01-26T09:21:39;101603.40;;;1.22;51.24
44351;BME280;62766;62.622;17.912;2023-01-26T09:24:07;101605.32;;;1.48;51.18
44351;BME280;62766;62.622;17.912;2023-01-26T09:26:36;101607.30;;;1.50;50.75
44351;BME280;62766;62.622;17.912;2023-01-26T09:29:04;101600.51;;;1.49;50.63
44351;BME280;62766;62.622;17.912;2023-01-26T09:31:33;101601.07;;;1.50;50.77
44351;BME280;62766;62.622;17.912;2023-01-26T09:34:01;101603.29;;;1.56;50.11
44351;BME280;62766;62.622;17.912;2023-01-26T09:36:29;101605.92;;;1.43;50.65
44351;BME280;62766;62.622;17.912;2023-01-26T09:38:58;101602.24;;;1.55;50.83
44351;BME280;62766;62.622;17.912;2023-01-26T09:41:42;101603.07;;;1.61;50.79
44351;BME280;62766;62.622;17.912;2023-01-26T09:44:18;101610.64;;;1.68;50.53
44351;BME280;62766;62.622;17.912;2023-01-26T09:46:58;101606.35;;;1.80;49.94
44351;BME280;62766;62.622;17.912;2023-01-26T09:49:35;101604.50;;;1.79;50.29
44351;BME280;62766;62.622;17.912;2023-01-26T09:52:11;101613.75;;;1.70;50.05
44351;BME280;62766;62.622;17.912;2023-01-26T09:54:45;101609.44;;;1.64;49.89
44351;BME280;62766;62.622;17.912;2023-01-26T09:57:17;101611.84;;;1.71;50.37
44351;BME280;62766;62.622;17.912;2023-01-26T09:59:51;101615.94;;;1.76;50.29
44351;BME280;62766;62.622;17.912;2023-01-26T10:02:32;101611.83;;;1.82;50.17
44351;BME280;62766;62.622;17.912;2023-01-26T10:05:13;101613.60;;;1.97;49.93
44351;BME280;62766;62.622;17.912;2023-01-26T10:07:45;101613.23;;;1.93;50.14
44351;BME280;62766;62.622;17.912;2023-01-26T10:10:21;101609.75;;;2.05;49.96
44351;BME280;62766;62.622;17.912;2023-01-26T10:12:53;101605.62;;;2.10;49.73
44351;BME280;62766;62.622;17.912;2023-01-26T10:15:28;101612.11;;;1.91;49.63
44351;BME280;62766;62.622;17.912;2023-01-26T10:18:01;101623.50;;;2.00;49.59
44351;BME280;62766;62.622;17.912;2023-01-26T10:20:35;101628.99;;;1.88;49.45
44351;BME280;62766;62.622;17.912;2023-01-26T10:23:11;101631.42;;;2.07;49.81
44351;BME280;62766;62.622;17.912;2023-01-26T10:25:42;101630.69;;;2.05;49.39
44351;BME280;62766;62.622;17.912;2023-01-26T10:28:13;101630.69;;;2.00;49.36
44351;BME280;62766;62.622;17.912;2023-01-26T10:30:43;101626.30;;;1.98;49.65
44351;BME280;62766;62.622;17.912;2023-01-26T10:33:15;101631.57;;;1.88;49.86
44351;BME280;62766;62.622;17.912;2023-01-26T10:35:45;101634.14;;;1.87;50.21
44351;BME280;62766;62.622;17.912;2023-01-26T10:38:47;101637.65;;;1.91;49.99
44351;BME280;62766;62.622;17.912;2023-01-26T10:41:26;101643.31;;;2.05;49.95
44351;BME280;62766;62.622;17.912;2023-01-26T10:43:57;101651.21;;;1.99;50.04
44351;BME280;62766;62.622;17.912;2023-01-26T10:46:29;101656.38;;;2.02;50.32
44351;BME280;62766;62.622;17.912;2023-01-26T10:49:00;101662.95;;;2.00;50.33
44351;BME280;62766;62.622;17.912;2023-01-26T10:51:31;101661.29;;;2.09;50.29
44351;BME280;62766;62.622;17.912;2023-01-26T10:54:32;101660.81;;;2.22;49.90
44351;BME280;62766;62.622;17.912;2023-01-26T10:57:03;101650.21;;;2.38;49.78
44351;BME280;62766;62.622;17.912;2023-01-26T10:59:33;101649.42;;;2.45;49.43
44351;BME280;62766;62.622;17.912;2023-01-26T11:03:37;101649.63;;;2.29;49.43
44351;BME280;62766;62.622;17.912;2023-01-26T11:06:11;101652.73;;;2.18;49.71
44351;BME280;62766;62.622;17.912;2023-01-26T11:08:42;101659.20;;;2.14;49.82
44351;BME280;62766;62.622;17.912;2023-01-26T11:11:23;101655.93;;;2.26;49.80
44351;BME280;62766;62.622;17.912;2023-01-26T11:14:10;101651.99;;;2.21;49.94
44351;BME280;62766;62.622;17.912;2023-01-26T11:16:39;101654.28;;;2.18;49.83
44351;BME280;62766;62.622;17.912;2023-01-26T11:19:12;101646.39;;;2.20;50.07
44351;BME280;62766;62.622;17.912;2023-01-26T11:21:47;101656.41;;;2.24;49.87
44351;BME280;62766;62.622;17.912;2023-01-26T11:24:24;101663.27;;;2.38;50.15
44351;BME280;62766;62.622;17.912;2023-01-26T11:27:11;101667.62;;;2.28;49.85
44351;BME280;62766;62.622;17.912;2023-01-26T11:30:01;101675.46;;;2.29;49.65
44351;BME280;62766;62.622;17.912;2023-01-26T11:32:40;101671.52;;;2.12;50.01
44351;BME280;62766;62.622;17.912;2023-01-26T11:35:17;101674.37;;;2.20;50.18
44351;BME280;62766;62.622;17.912;2023-01-26T11:37:55;101686.37;;;2.20;50.14
44351;BME280;62766;62.622;17.912;2023-01-26T11:40:37;101681.03;;;2.27;50.33
44351;BME280;62766;62.622;17.912;2023-01-26T11:43:23;101680.32;;;2.13;50.03
44351;BME280;62766;62.622;17.912;2023-01-26T11:46:07;101683.50;;;2.22;50.12
44351;BME280;62766;62.622;17.912;2023-01-26T11:48:48;101678.89;;;2.30;50.25
44351;BME280;62766;62.622;17.912;2023-01-26T11:51:27;101679.08;;;2.32;50.06
44351;BME280;62766;62.622;17.912;2023-01-26T11:54:14;101672.08;;;2.22;50.00
44351;BME280;62766;62.622;17.912;2023-01-26T11:56:49;101668.80;;;2.35;50.05
44351;BME280;62766;62.622;17.912;2023-01-26T11:59:27;101665.58;;;2.30;49.70
44351;BME280;62766;62.622;17.912;2023-01-26T12:02:01;101669.45;;;2.28;50.06
44351;BME280;62766;62.622;17.912;2023-01-26T12:04:36;101678.65;;;2.19;50.33
44351;BME280;62766;62.622;17.912;2023-01-26T12:07:13;101680.47;;;2.18;50.07
44351;BME280;62766;62.622;17.912;2023-01-26T12:09:45;101681.61;;;2.38;50.06
44351;BME280;62766;62.622;17.912;2023-01-26T12:12:18;101686.97;;;2.33;49.67
44351;BME280;62766;62.622;17.912;2023-01-26T12:14:55;101692.74;;;2.29;49.58
44351;BME280;62766;62.622;17.912;2023-01-26T12:17:35;101696.80;;;2.25;49.93
44351;BME280;62766;62.622;17.912;2023-01-26T12:20:20;101699.19;;;2.10;49.84
44351;BME280;62766;62.622;17.912;2023-01-26T12:22:56;101703.27;;;2.09;49.51
44351;BME280;62766;62.622;17.912;2023-01-26T12:25:32;101708.51;;;2.05;49.81
44351;BME280;62766;62.622;17.912;2023-01-26T12:28:12;101717.43;;;2.00;50.27
44351;BME280;62766;62.622;17.912;2023-01-26T12:30:50;101721.84;;;1.95;50.13
44351;BME280;62766;62.622;17.912;2023-01-26T12:33:20;101729.02;;;1.84;50.42
44351;BME280;62766;62.622;17.912;2023-01-26T12:36:14;101725.30;;;1.76;50.59
44351;BME280;62766;62.622;17.912;2023-01-26T12:38:58;101721.63;;;1.60;51.01
44351;BME280;62766;62.622;17.912;2023-01-26T12:41:50;101719.64;;;1.70;50.85
44351;BME280;62766;62.622;17.912;2023-01-26T12:44:32;101715.27;;;1.67;51.32
44351;BME280;62766;62.622;17.912;2023-01-26T12:47:10;101723.68;;;1.78;51.08
44351;BME280;62766;62.622;17.912;2023-01-26T12:49:47;101728.69;;;1.76;51.19
44351;BME280;62766;62.622;17.912;2023-01-26T12:52:22;101735.42;;;1.74;51.18
44351;BME280;62766;62.622;17.912;2023-01-26T12:54:58;101735.69;;;1.90;51.14
44351;BME280;62766;62.622;17.912;2023-01-26T12:57:34;101735.53;;;1.87;51.06
44351;BME280;62766;62.622;17.912;2023-01-26T13:00:06;101738.95;;;1.84;51.17
44351;BME280;62766;62.622;17.912;2023-01-26T13:02:45;101740.63;;;1.77;51.29
44351;BME280;62766;62.622;17.912;2023-01-26T13:05:27;101744.37;;;1.85;51.32
44351;BME280;62766;62.622;17.912;2023-01-26T13:07:56;101739.26;;;1.96;50.98
44351;BME280;62766;62.622;17.912;2023-01-26T13:10:28;101746.27;;;1.85;51.37
44351;BME280;62766;62.622;17.912;2023-01-26T13:12:58;101749.53;;;1.78;51.60
44351;BME280;62766;62.622;17.912;2023-01-26T13:15:28;101756.40;;;1.68;51.77